createdAt,value
2018-08-20T00:01:48.349Z,6.03
2018-08-20T00:04:21.555Z,5.62
2018-08-20T00:06:56.499Z,6.00
2018-08-20T00:09:36.455Z,5.35
2018-08-20T00:12:09.768Z,6.80
2018-08-20T00:14:43.070Z,4.50
2018-08-20T00:17:16.368Z,6.78
2018-08-20T00:19:49.562Z,5.58
2018-08-20T00:22:22.936Z,6.17
2018-08-20T00:25:06.548Z,5.42
2018-08-20T00:27:39.647Z,4.42
2018-08-20T00:30:14.712Z,4.53
2018-08-20T00:32:48.498Z,4.95
2018-08-20T00:35:22.676Z,4.47
2018-08-20T00:37:55.945Z,4.55
2018-08-20T00:40:29.155Z,4.60
2018-08-20T00:43:02.277Z,5.58
2018-08-20T00:45:35.651Z,4.83
2018-08-20T00:48:09.519Z,4.87
2018-08-20T00:50:42.648Z,5.60
2018-08-20T00:53:15.887Z,5.15
2018-08-20T00:55:49.153Z,6.10
2018-08-20T00:58:22.248Z,5.58
2018-08-20T01:00:55.404Z,5.50
2018-08-20T01:03:28.553Z,5.25
2018-08-20T01:06:01.740Z,7.65
2018-08-20T01:08:34.889Z,5.40
2018-08-20T01:11:07.981Z,6.92
2018-08-20T01:13:41.140Z,5.70
2018-08-20T01:16:14.166Z,6.42
2018-08-20T01:18:47.602Z,5.60
2018-08-20T01:21:20.936Z,6.87
2018-08-20T01:23:54.206Z,6.50
2018-08-20T01:26:27.480Z,6.97
2018-08-20T01:29:00.777Z,5.58
2018-08-20T01:31:33.972Z,6.12
2018-08-20T01:34:07.212Z,5.90
2018-08-20T01:36:41.659Z,5.80
2018-08-20T01:39:14.890Z,5.92
2018-08-20T01:41:48.021Z,5.35
2018-08-20T01:44:21.291Z,5.67
2018-08-20T01:46:54.443Z,5.35
2018-08-20T01:49:27.537Z,5.67
2018-08-20T01:52:00.710Z,6.30
2018-08-20T01:54:34.743Z,6.03
2018-08-20T01:57:07.820Z,5.90
2018-08-20T01:59:40.886Z,6.03
2018-08-20T02:02:14.028Z,5.33
2018-08-20T02:09:47.355Z,5.72
2018-08-20T02:12:20.548Z,5.58
2018-08-20T02:14:53.616Z,6.12
2018-08-20T02:17:26.764Z,6.33
2018-08-20T02:20:00.000Z,6.20
2018-08-20T02:22:33.968Z,6.10
2018-08-20T02:25:07.004Z,6.00
2018-08-20T02:27:40.200Z,6.12
2018-08-20T02:30:13.389Z,6.75
2018-08-20T02:32:46.580Z,6.10
2018-08-20T02:35:19.746Z,6.45
2018-08-20T02:37:52.776Z,6.33
2018-08-20T02:40:25.887Z,5.50
2018-08-20T02:42:58.921Z,6.47
2018-08-20T02:45:32.092Z,5.72
2018-08-20T02:48:06.706Z,5.62
2018-08-20T02:50:39.808Z,6.15
2018-08-20T02:53:12.916Z,5.92
2018-08-20T02:55:45.980Z,7.15
2018-08-20T02:58:19.023Z,6.03
2018-08-20T03:00:52.036Z,7.03
2018-08-20T03:03:25.104Z,6.92
2018-08-20T03:05:58.209Z,6.10
2018-08-20T03:08:31.240Z,6.03
2018-08-20T03:11:04.606Z,6.83
2018-08-20T03:13:37.706Z,5.80
2018-08-20T03:16:10.836Z,6.80
2018-08-20T03:18:43.936Z,6.17
2018-08-20T03:21:17.173Z,7.37
2018-08-20T03:23:50.405Z,6.25
2018-08-20T03:26:23.460Z,7.45
2018-08-20T03:28:56.699Z,7.25
2018-08-20T03:31:30.265Z,6.33
2018-08-20T03:34:03.469Z,6.58
2018-08-20T03:36:36.647Z,7.03
2018-08-20T03:39:09.813Z,6.97
2018-08-20T03:41:43.169Z,7.45
2018-08-20T03:44:16.248Z,7.62
2018-08-20T03:46:49.417Z,7.10
2018-08-20T03:49:22.699Z,7.37
2018-08-20T03:51:55.868Z,7.45
2018-08-20T03:54:29.012Z,6.83
2018-08-20T03:57:02.074Z,7.80
2018-08-20T03:59:36.177Z,6.87
2018-08-20T04:02:09.334Z,7.33
2018-08-20T04:04:43.514Z,7.22
2018-08-20T04:07:16.535Z,7.12
2018-08-20T04:09:49.660Z,8.45
2018-08-20T04:12:22.682Z,7.75
2018-08-20T04:14:55.951Z,8.53
2018-08-20T04:17:29.149Z,7.47
2018-08-20T04:20:02.360Z,8.83
2018-08-20T04:22:35.457Z,7.90
2018-08-20T04:25:08.487Z,9.13
2018-08-20T04:27:41.913Z,7.85
2018-08-20T04:30:15.143Z,8.85
2018-08-20T04:32:48.312Z,7.72
2018-08-20T04:35:21.513Z,8.55
2018-08-20T04:37:58.256Z,7.95
2018-08-20T04:40:31.360Z,8.58
2018-08-20T04:43:04.624Z,8.75
2018-08-20T04:45:37.863Z,8.75
2018-08-20T04:48:11.124Z,8.33
2018-08-20T04:50:44.326Z,7.60
2018-08-20T04:53:17.600Z,7.87
2018-08-20T04:55:50.795Z,7.85
2018-08-20T04:58:23.950Z,7.62
2018-08-20T05:00:57.064Z,8.10
2018-08-20T05:03:30.356Z,8.93
2018-08-20T05:06:03.413Z,7.87
2018-08-20T05:08:36.566Z,7.03
2018-08-20T05:11:09.736Z,7.30
2018-08-20T05:13:42.835Z,7.83
2018-08-20T05:16:16.061Z,8.83
2018-08-20T05:18:49.162Z,8.35
2018-08-20T05:21:22.638Z,7.85
2018-08-20T05:23:55.785Z,9.15
2018-08-20T05:26:28.937Z,7.58
2018-08-20T05:29:02.055Z,9.43
2018-08-20T05:31:35.145Z,8.40
2018-08-20T05:34:08.337Z,7.58
2018-08-20T05:36:42.238Z,8.08
2018-08-20T05:39:15.531Z,8.85
2018-08-20T05:41:48.645Z,7.78
2018-08-20T05:44:22.018Z,8.53
2018-08-20T05:46:55.206Z,7.62
2018-08-20T05:49:28.636Z,9.28
2018-08-20T05:52:01.797Z,8.75
2018-08-20T05:54:34.913Z,8.78
2018-08-20T05:57:08.180Z,8.18
2018-08-20T05:59:41.305Z,8.18
2018-08-20T06:02:14.626Z,8.45
2018-08-20T06:04:47.906Z,9.00
2018-08-20T06:07:21.157Z,7.75
2018-08-20T06:09:54.434Z,7.95
2018-08-20T06:12:27.607Z,9.28
2018-08-20T06:15:00.727Z,9.05
2018-08-20T06:17:34.034Z,9.08
2018-08-20T06:20:09.557Z,10.25
2018-08-20T06:22:42.960Z,11.12
2018-08-20T06:25:16.001Z,9.90
2018-08-20T06:27:49.629Z,9.40
2018-08-20T06:30:23.070Z,8.18
2018-08-20T06:32:56.374Z,9.28
2018-08-20T06:35:29.638Z,10.00
2018-08-20T06:38:02.684Z,8.58
2018-08-20T06:40:35.904Z,7.75
2018-08-20T06:43:09.147Z,8.08
2018-08-20T06:45:42.337Z,7.62
2018-08-20T06:48:15.392Z,8.93
2018-08-20T06:50:48.517Z,9.83
2018-08-20T06:53:21.753Z,9.00
2018-08-20T06:55:55.184Z,8.48
2018-08-20T06:58:28.416Z,11.27
2018-08-20T07:01:01.689Z,7.92
2018-08-20T07:03:34.861Z,9.65
2018-08-20T07:06:07.964Z,9.03
2018-08-20T07:08:41.096Z,9.28
2018-08-20T07:11:14.366Z,8.75
2018-08-20T07:13:47.613Z,10.18
2018-08-20T07:16:20.660Z,9.75
2018-08-20T07:18:53.914Z,9.63
2018-08-20T07:21:27.128Z,9.38
2018-08-20T07:24:00.396Z,9.83
2018-08-20T07:26:33.756Z,8.25
2018-08-20T07:29:07.570Z,10.48
2018-08-20T07:31:40.876Z,9.45
2018-08-20T07:34:14.330Z,8.08
2018-08-20T07:36:47.504Z,7.95
2018-08-20T07:39:20.681Z,7.33
2018-08-20T07:41:53.902Z,9.20
2018-08-20T07:44:27.065Z,9.03
2018-08-20T07:47:00.461Z,7.75
2018-08-20T07:49:33.570Z,8.08
2018-08-20T07:52:07.949Z,7.97
2018-08-20T07:54:41.960Z,7.75
2018-08-20T07:57:15.223Z,7.95
2018-08-20T07:59:48.451Z,8.23
2018-08-20T08:02:21.609Z,5.95
2018-08-20T08:04:54.749Z,6.42
2018-08-20T08:07:28.053Z,7.67
2018-08-20T08:10:01.386Z,5.50
2018-08-20T08:12:34.614Z,5.33
2018-08-20T08:15:09.198Z,6.08
2018-08-20T08:17:43.650Z,7.33
2018-08-20T08:20:17.036Z,6.28
2018-08-20T08:22:50.318Z,7.35
2018-08-20T08:25:23.434Z,6.05
2018-08-20T08:27:56.902Z,6.53
2018-08-20T08:30:30.276Z,5.72
2018-08-20T08:33:05.576Z,8.97
2018-08-20T08:35:39.043Z,7.12
2018-08-20T08:38:12.260Z,8.30
2018-08-20T08:40:45.391Z,8.63
2018-08-20T08:43:18.633Z,8.85
2018-08-20T08:45:56.083Z,10.85
2018-08-20T08:48:30.285Z,6.85
2018-08-20T08:51:04.387Z,7.22
2018-08-20T08:53:37.814Z,7.20
2018-08-20T08:56:11.145Z,6.97
2018-08-20T08:58:48.846Z,7.30
2018-08-20T09:01:21.953Z,8.33
2018-08-20T09:03:55.395Z,8.08
2018-08-20T09:06:28.506Z,7.62
2018-08-20T09:09:02.010Z,6.50
2018-08-20T09:11:35.599Z,7.55
2018-08-20T09:14:08.757Z,6.53
2018-08-20T09:16:42.050Z,7.37
2018-08-20T09:19:15.221Z,6.30
2018-08-20T09:21:48.412Z,7.70
2018-08-20T09:24:21.689Z,6.53
2018-08-20T09:26:55.741Z,7.15
2018-08-20T09:29:29.287Z,5.72
2018-08-20T09:32:02.513Z,11.38
2018-08-20T09:34:36.047Z,6.50
2018-08-20T09:37:09.229Z,8.15
2018-08-20T09:39:42.474Z,9.00
2018-08-20T09:42:15.765Z,5.30
2018-08-20T09:44:50.713Z,4.58
2018-08-20T09:47:23.929Z,4.33
2018-08-20T09:50:00.555Z,6.85
2018-08-20T09:52:33.827Z,6.00
2018-08-20T09:55:07.917Z,5.20
2018-08-20T09:57:41.091Z,5.40
2018-08-20T10:00:20.719Z,5.55
2018-08-20T10:02:53.992Z,6.90
2018-08-20T10:05:27.310Z,8.05
2018-08-20T10:08:01.408Z,6.12
2018-08-20T10:10:34.680Z,5.92
2018-08-20T10:13:07.892Z,4.78
2018-08-20T10:15:40.943Z,6.30
2018-08-20T10:18:14.237Z,7.28
2018-08-20T10:20:47.413Z,5.37
2018-08-20T10:23:20.641Z,6.28
2018-08-20T10:25:53.773Z,5.80
2018-08-20T10:28:27.157Z,4.58
2018-08-20T10:31:00.511Z,7.20
2018-08-20T10:33:33.691Z,4.65
2018-08-20T10:36:07.002Z,5.90
2018-08-20T10:38:48.478Z,5.12
2018-08-20T10:41:21.741Z,6.08
2018-08-20T10:43:55.139Z,6.58
2018-08-20T10:46:28.412Z,4.47
2018-08-20T10:49:01.521Z,4.53
2018-08-20T10:51:34.802Z,3.67
2018-08-20T10:54:07.945Z,4.70
2018-08-20T10:56:41.947Z,5.70
2018-08-20T10:59:15.678Z,4.45
2018-08-20T11:01:48.858Z,4.03
2018-08-20T11:04:22.200Z,5.22
2018-08-20T11:06:55.351Z,4.45
2018-08-20T11:09:30.681Z,5.47
2018-08-20T11:12:03.819Z,5.50
2018-08-20T11:14:36.957Z,6.20
2018-08-20T11:17:10.248Z,4.75
2018-08-20T11:19:43.567Z,4.75
2018-08-20T11:22:16.678Z,4.87
2018-08-20T11:24:49.865Z,6.40
2018-08-20T11:27:24.179Z,4.55
2018-08-20T11:29:57.855Z,7.97
2018-08-20T11:32:31.075Z,4.62
2018-08-20T11:35:04.673Z,6.08
2018-08-20T11:37:37.868Z,5.00
2018-08-20T11:40:10.874Z,4.80
2018-08-20T11:42:44.152Z,4.47
2018-08-20T11:45:17.468Z,3.80
2018-08-20T11:47:50.708Z,4.35
2018-08-20T11:50:24.883Z,3.70
2018-08-20T11:52:58.127Z,5.15
2018-08-20T11:55:31.300Z,4.85
2018-08-20T11:58:04.643Z,4.20
2018-08-20T12:00:38.493Z,3.87
2018-08-20T12:03:12.033Z,3.55
2018-08-20T12:05:45.306Z,3.62
2018-08-20T12:08:26.813Z,4.65
2018-08-20T12:10:59.943Z,4.12
2018-08-20T12:13:33.189Z,4.90
2018-08-20T12:16:06.978Z,4.47
2018-08-20T12:18:40.109Z,6.15
2018-08-20T12:21:13.302Z,4.05
2018-08-20T12:23:47.338Z,4.62
2018-08-20T12:26:20.909Z,4.20
2018-08-20T12:28:55.514Z,4.47
2018-08-20T12:31:28.895Z,5.67
2018-08-20T12:34:02.156Z,5.92
2018-08-20T12:36:35.764Z,6.60
2018-08-20T12:39:09.570Z,4.45
2018-08-20T12:41:42.777Z,3.55
2018-08-20T12:44:16.012Z,3.77
2018-08-20T12:46:49.316Z,5.10
2018-08-20T12:49:22.410Z,3.85
2018-08-20T12:51:55.679Z,4.03
2018-08-20T12:54:28.899Z,2.98
2018-08-20T12:57:02.194Z,3.85
2018-08-20T12:59:36.065Z,2.90
2018-08-20T13:02:09.085Z,4.20
2018-08-20T13:04:42.436Z,4.00
2018-08-20T13:07:16.125Z,7.58
2018-08-20T13:09:50.097Z,3.67
2018-08-20T13:12:23.269Z,3.80
2018-08-20T13:14:56.556Z,3.10
2018-08-20T13:17:31.273Z,6.03
2018-08-20T13:20:13.453Z,5.33
2018-08-20T13:22:47.010Z,2.72
2018-08-20T13:25:20.228Z,4.22
2018-08-20T13:27:53.775Z,3.40
2018-08-20T13:30:26.931Z,3.92
2018-08-20T13:33:01.496Z,4.33
2018-08-20T13:35:35.024Z,4.50
2018-08-20T13:38:28.328Z,5.20
2018-08-20T13:41:01.696Z,4.08
2018-08-20T13:43:35.672Z,3.92
2018-08-20T13:46:09.061Z,4.55
2018-08-20T13:48:42.258Z,5.17
2018-08-20T13:51:17.436Z,5.42
2018-08-20T13:53:51.195Z,6.08
2018-08-20T13:56:25.112Z,5.87
2018-08-20T13:58:58.535Z,3.72
2018-08-20T14:01:33.280Z,4.12
2018-08-20T14:04:07.078Z,5.50
2018-08-20T14:06:40.444Z,4.05
2018-08-20T14:09:14.220Z,3.77
2018-08-20T14:11:49.137Z,5.28
2018-08-20T14:14:22.326Z,5.22
2018-08-20T14:16:55.523Z,3.62
2018-08-20T14:19:29.030Z,3.75
2018-08-20T14:25:02.535Z,2.77
2018-08-20T14:27:35.782Z,5.55
2018-08-20T14:30:11.548Z,3.30
2018-08-20T14:32:45.190Z,3.52
2018-08-20T14:35:18.424Z,4.90
2018-08-20T14:37:51.800Z,3.15
2018-08-20T14:40:25.517Z,2.35
2018-08-20T14:42:58.782Z,4.67
2018-08-20T14:45:37.792Z,3.45
2018-08-20T14:48:13.349Z,3.75
2018-08-20T14:50:46.400Z,2.77
2018-08-20T14:53:20.039Z,3.30
2018-08-20T14:55:53.390Z,3.40
2018-08-20T14:58:26.559Z,2.87
2018-08-20T15:00:59.791Z,4.83
2018-08-20T15:03:32.937Z,3.77
2018-08-20T15:06:06.278Z,3.08
2018-08-20T15:08:39.775Z,3.25
2018-08-20T15:11:12.918Z,4.67
2018-08-20T15:13:46.064Z,4.30
2018-08-20T15:16:19.860Z,5.65
2018-08-20T15:18:53.138Z,4.33
2018-08-20T15:21:26.476Z,4.35
2018-08-20T15:23:59.694Z,4.22
2018-08-20T15:26:33.019Z,4.10
2018-08-20T15:29:06.441Z,3.77
2018-08-20T15:31:45.369Z,5.00
2018-08-20T15:34:18.569Z,3.70
2018-08-20T15:36:51.737Z,3.75
2018-08-20T15:39:25.661Z,2.75
2018-08-20T15:42:04.426Z,3.52
2018-08-20T15:44:37.686Z,2.30
2018-08-20T15:47:10.941Z,2.67
2018-08-20T15:49:46.012Z,2.92
2018-08-20T15:52:26.033Z,3.67
2018-08-20T15:54:59.248Z,4.90
2018-08-20T15:57:32.571Z,2.83
2018-08-20T16:00:07.286Z,4.80
2018-08-20T16:02:41.279Z,3.02
2018-08-20T16:05:14.444Z,4.42
2018-08-20T16:07:47.777Z,3.15
2018-08-20T16:10:20.905Z,4.25
2018-08-20T16:12:54.102Z,4.85
2018-08-20T16:15:27.292Z,5.05
2018-08-20T16:18:00.627Z,7.40
2018-08-20T16:20:33.801Z,4.33
2018-08-20T16:23:07.263Z,2.72
2018-08-20T16:25:40.459Z,3.30
2018-08-20T16:28:13.725Z,2.90
2018-08-20T16:30:46.985Z,4.03
2018-08-20T16:33:20.140Z,3.12
2018-08-20T16:35:53.394Z,3.58
2018-08-20T16:38:26.463Z,3.20
2018-08-20T16:40:59.877Z,3.20
2018-08-20T16:43:33.219Z,3.40
2018-08-20T16:46:06.459Z,2.70
2018-08-20T16:48:39.788Z,2.90
2018-08-20T16:51:13.107Z,4.08
2018-08-20T16:53:46.444Z,3.42
2018-08-20T16:56:19.776Z,2.80
2018-08-20T16:58:52.889Z,3.30
2018-08-20T17:01:26.016Z,2.72
2018-08-20T17:03:59.588Z,3.15
2018-08-20T17:06:46.014Z,4.47
2018-08-20T17:09:19.225Z,6.80
2018-08-20T17:11:52.479Z,3.75
2018-08-20T17:14:25.880Z,4.90
2018-08-20T17:16:58.908Z,5.25
2018-08-20T17:19:32.017Z,4.92
2018-08-20T17:22:05.269Z,3.12
2018-08-20T17:24:39.595Z,3.00
2018-08-20T17:27:12.860Z,3.70
2018-08-20T17:29:46.049Z,3.17
2018-08-20T17:32:19.594Z,3.20
2018-08-20T17:34:52.832Z,4.15
2018-08-20T17:37:26.365Z,5.42
2018-08-20T17:40:02.023Z,4.67
2018-08-20T17:42:35.048Z,3.52
2018-08-20T17:45:08.749Z,4.25
2018-08-20T17:47:41.833Z,7.37
2018-08-20T17:50:28.400Z,8.25
2018-08-20T17:53:01.611Z,5.87
2018-08-20T17:55:34.777Z,6.08
2018-08-20T17:58:08.313Z,4.28
2018-08-20T18:00:47.321Z,3.47
2018-08-20T18:03:25.872Z,4.03
2018-08-20T18:06:00.398Z,5.65
2018-08-20T18:08:34.147Z,4.00
2018-08-20T18:11:08.094Z,6.35
2018-08-20T18:13:47.133Z,3.98
2018-08-20T18:16:21.607Z,6.28
2018-08-20T18:18:55.063Z,3.67
2018-08-20T18:21:28.913Z,3.90
2018-08-20T18:24:05.476Z,5.35
2018-08-20T18:26:44.979Z,3.98
2018-08-20T18:29:18.931Z,4.50
2018-08-20T18:31:55.810Z,5.20
2018-08-20T18:34:30.646Z,5.35
2018-08-20T18:37:05.212Z,3.80
2018-08-20T18:39:39.627Z,5.08
2018-08-20T18:42:13.912Z,4.30
2018-08-20T18:44:48.111Z,3.83
2018-08-20T18:47:21.298Z,3.40
2018-08-20T18:49:56.978Z,3.67
2018-08-20T18:52:30.866Z,3.70
2018-08-20T18:55:05.685Z,4.40
2018-08-20T18:57:38.850Z,4.53
2018-08-20T19:00:17.619Z,3.75
2018-08-20T19:02:54.785Z,5.10
2018-08-20T19:05:32.123Z,4.00
2018-08-20T19:08:11.663Z,4.55
2018-08-20T19:10:47.573Z,3.60
2018-08-20T19:16:34.530Z,4.37
2018-08-20T19:19:08.160Z,4.65
2018-08-20T19:21:41.922Z,3.90
2018-08-20T19:24:15.277Z,5.45
2018-08-20T19:26:49.204Z,4.87
2018-08-20T19:29:24.420Z,4.85
2018-08-20T19:31:57.782Z,4.25
2018-08-20T19:34:30.859Z,4.58
2018-08-20T19:37:04.574Z,3.40
2018-08-20T19:39:37.725Z,4.92
2018-08-20T19:42:13.904Z,5.03
2018-08-20T19:44:47.261Z,4.00
2018-08-20T19:47:20.454Z,2.90
2018-08-20T19:49:53.727Z,3.92
2018-08-20T19:52:27.181Z,3.22
2018-08-20T19:55:06.171Z,4.08
2018-08-20T19:57:39.230Z,3.27
2018-08-20T20:00:13.315Z,4.53
2018-08-20T20:02:46.571Z,3.52
2018-08-20T20:05:19.748Z,6.05
2018-08-20T20:07:58.798Z,3.92
2018-08-20T20:10:31.883Z,3.58
2018-08-20T20:13:06.099Z,3.95
2018-08-20T20:15:43.990Z,3.20
2018-08-20T20:18:17.397Z,4.30
2018-08-20T20:20:50.586Z,4.72
2018-08-20T20:26:22.398Z,3.67
2018-08-20T20:28:55.864Z,3.33
2018-08-20T20:31:29.137Z,3.98
2018-08-20T20:34:02.614Z,3.10
2018-08-20T20:36:36.904Z,3.75
2018-08-20T20:39:11.348Z,3.45
2018-08-20T20:41:46.998Z,3.00
2018-08-20T20:44:20.262Z,3.05
2018-08-20T20:46:53.562Z,4.28
2018-08-20T20:58:40.822Z,4.12
2018-08-20T21:03:55.689Z,2.77
2018-08-20T21:06:36.637Z,2.47
2018-08-20T21:14:51.253Z,3.20
2018-08-20T21:17:24.600Z,2.62
2018-08-20T21:19:57.944Z,3.83
2018-08-20T21:22:33.236Z,3.17
2018-08-20T21:25:07.657Z,2.95
2018-08-20T21:27:42.144Z,2.62
2018-08-20T21:30:15.450Z,3.33
2018-08-20T21:32:48.809Z,4.20
2018-08-20T21:35:22.706Z,3.20
2018-08-20T21:37:55.831Z,2.67
2018-08-20T21:40:29.559Z,3.70
2018-08-20T21:43:03.571Z,2.90
2018-08-20T21:45:36.793Z,3.25
2018-08-20T21:48:10.003Z,2.80
2018-08-20T21:50:43.398Z,3.22
2018-08-20T21:53:36.377Z,2.25
2018-08-20T21:56:10.720Z,1.92
2018-08-20T21:58:44.359Z,3.45
2018-08-20T22:01:17.800Z,2.60
2018-08-20T22:03:50.966Z,3.52
2018-08-20T22:06:24.225Z,2.17
2018-08-20T22:08:57.316Z,3.85
2018-08-20T22:11:30.552Z,2.30
2018-08-20T22:14:03.688Z,3.15
2018-08-20T22:16:36.997Z,2.10
2018-08-20T22:19:10.411Z,3.25
2018-08-20T22:21:43.939Z,2.02
2018-08-20T22:24:17.289Z,3.12
2018-08-20T22:26:56.099Z,3.05
2018-08-20T22:29:34.615Z,2.83
2018-08-20T22:32:08.291Z,3.10
2018-08-20T22:34:41.522Z,2.20
2018-08-20T22:37:16.462Z,2.37
2018-08-20T22:39:54.360Z,2.10
2018-08-20T22:42:43.345Z,3.17
2018-08-20T22:45:17.846Z,1.67
2018-08-20T22:47:51.435Z,2.05
2018-08-20T22:50:24.598Z,1.80
2018-08-20T22:52:57.828Z,2.58
2018-08-20T22:55:31.055Z,2.15
2018-08-20T22:58:07.812Z,2.83
2018-08-20T23:00:40.922Z,4.25
2018-08-20T23:03:14.044Z,2.25
2018-08-20T23:05:47.241Z,4.00
2018-08-20T23:08:20.422Z,2.90
2018-08-20T23:10:53.787Z,4.37
2018-08-20T23:13:27.416Z,2.95
2018-08-20T23:16:00.508Z,3.15
2018-08-20T23:18:33.641Z,3.90
2018-08-20T23:21:06.846Z,3.80
2018-08-20T23:23:40.028Z,2.27
2018-08-20T23:26:13.219Z,2.92
2018-08-20T23:28:46.616Z,3.00
2018-08-20T23:31:19.700Z,3.30
2018-08-20T23:33:52.996Z,2.65
2018-08-20T23:36:26.332Z,1.90
2018-08-20T23:38:59.430Z,2.55
2018-08-20T23:41:32.698Z,2.60
2018-08-20T23:44:05.845Z,2.65
2018-08-20T23:46:40.292Z,2.12
2018-08-20T23:49:13.415Z,2.33
2018-08-20T23:51:46.760Z,2.45
2018-08-20T23:54:19.941Z,2.08
2018-08-20T23:56:52.978Z,2.55
2018-08-20T23:59:26.115Z,1.98
